createdAt,value
2022-09-06T00:01:10.032Z,1.80
2022-09-06T00:05:21.954Z,1.80
2022-09-06T00:09:33.626Z,1.80
2022-09-06T00:13:46.581Z,1.98
2022-09-06T00:17:59.761Z,1.70
2022-09-06T00:22:11.521Z,1.75
2022-09-06T00:26:23.610Z,1.70
2022-09-06T00:30:35.325Z,1.90
2022-09-06T00:34:46.956Z,1.80
2022-09-06T00:39:23.384Z,1.50
2022-09-06T00:43:35.454Z,2.00
2022-09-06T00:47:47.394Z,1.45
2022-09-06T00:52:13.672Z,1.38
2022-09-06T00:56:26.391Z,1.48
2022-09-06T01:00:38.168Z,1.58
2022-09-06T01:04:51.981Z,1.55
2022-09-06T01:09:25.769Z,2.10
2022-09-06T01:13:55.712Z,1.70
2022-09-06T01:18:31.768Z,1.92
2022-09-06T01:23:04.585Z,1.40
2022-09-06T01:27:41.053Z,1.45
2022-09-06T01:31:58.689Z,1.60
2022-09-06T01:36:15.252Z,1.60
2022-09-06T01:40:28.100Z,1.92
2022-09-06T01:44:43.772Z,1.67
2022-09-06T01:49:22.747Z,1.98
2022-09-06T01:53:55.062Z,2.78
2022-09-06T01:58:09.532Z,2.10
2022-09-06T02:02:42.605Z,2.42
2022-09-06T02:07:00.862Z,2.25
2022-09-06T02:11:14.715Z,1.83
2022-09-06T02:15:36.875Z,1.92
2022-09-06T02:19:57.237Z,2.20
2022-09-06T02:24:12.060Z,1.98
2022-09-06T02:28:24.144Z,1.70
2022-09-06T02:32:44.392Z,2.05
2022-09-06T02:36:56.406Z,2.03
2022-09-06T02:41:09.225Z,2.08
2022-09-06T02:45:20.792Z,2.42
2022-09-06T02:49:32.362Z,2.17
2022-09-06T02:53:43.909Z,3.10
2022-09-06T02:57:55.442Z,2.58
2022-09-06T03:02:07.071Z,2.47
2022-09-06T03:06:18.706Z,2.47
2022-09-06T03:10:30.413Z,2.63
2022-09-06T03:14:42.109Z,2.05
2022-09-06T03:18:53.878Z,2.20
2022-09-06T03:23:05.613Z,2.60
2022-09-06T03:27:17.317Z,2.50
2022-09-06T03:31:28.962Z,2.30
2022-09-06T03:35:46.924Z,2.10
2022-09-06T03:39:59.879Z,2.33
2022-09-06T03:44:11.640Z,2.08
2022-09-06T03:48:24.808Z,2.55
2022-09-06T03:52:36.634Z,2.10
2022-09-06T03:56:48.221Z,2.30
2022-09-06T04:01:05.517Z,2.70
2022-09-06T04:05:17.950Z,2.67
2022-09-06T04:09:29.604Z,2.72
2022-09-06T04:13:41.610Z,2.83
2022-09-06T04:17:53.234Z,4.05
2022-09-06T04:22:04.864Z,3.53
2022-09-06T04:26:16.867Z,3.30
2022-09-06T04:30:28.548Z,3.28
2022-09-06T04:34:40.212Z,3.28
2022-09-06T04:38:51.816Z,3.20
2022-09-06T04:43:03.476Z,3.38
2022-09-06T04:47:16.236Z,3.03
2022-09-06T04:51:27.998Z,3.45
2022-09-06T04:55:39.635Z,3.78
2022-09-06T04:59:51.300Z,3.92
2022-09-06T05:04:02.948Z,3.38
2022-09-06T05:08:14.819Z,3.40
2022-09-06T05:12:26.575Z,3.70
2022-09-06T05:16:38.295Z,3.22
2022-09-06T05:20:53.748Z,3.47
2022-09-06T05:25:06.018Z,3.00
2022-09-06T05:29:17.581Z,3.25
2022-09-06T05:33:29.156Z,3.47
2022-09-06T05:37:40.945Z,2.97
2022-09-06T05:41:52.521Z,3.25
2022-09-06T05:46:04.264Z,3.47
2022-09-06T05:50:15.986Z,3.35
2022-09-06T05:54:27.542Z,4.00
2022-09-06T05:58:39.605Z,3.13
2022-09-06T06:02:51.312Z,4.00
2022-09-06T06:07:02.911Z,3.75
2022-09-06T06:11:14.950Z,3.35
2022-09-06T06:15:26.540Z,3.85
2022-09-06T06:19:38.102Z,3.85
2022-09-06T06:23:51.865Z,3.90
2022-09-06T06:28:04.054Z,3.97
2022-09-06T06:32:15.641Z,4.00
2022-09-06T06:36:30.665Z,4.18
2022-09-06T06:40:45.702Z,3.88
2022-09-06T06:44:57.264Z,3.60
2022-09-06T06:49:08.823Z,3.42
2022-09-06T06:53:20.357Z,3.55
2022-09-06T06:57:31.943Z,3.75
2022-09-06T07:01:43.605Z,3.70
2022-09-06T07:06:12.033Z,4.47
2022-09-06T07:14:43.699Z,3.47
2022-09-06T07:18:55.378Z,3.67
2022-09-06T07:32:15.463Z,4.20
2022-09-06T07:36:27.003Z,3.83
2022-09-06T07:40:38.513Z,3.65
2022-09-06T07:44:50.054Z,4.00
2022-09-06T07:49:04.592Z,3.97
2022-09-06T07:53:29.261Z,3.17
2022-09-06T07:57:41.956Z,3.75
2022-09-06T08:01:53.759Z,3.28
2022-09-06T08:06:08.708Z,3.25
2022-09-06T08:10:20.720Z,3.33
2022-09-06T08:14:35.817Z,2.67
2022-09-06T08:18:52.495Z,3.83
2022-09-06T08:23:09.844Z,2.90
2022-09-06T08:27:21.395Z,2.95
2022-09-06T08:31:33.808Z,2.95
2022-09-06T08:35:54.583Z,2.60
2022-09-06T08:40:06.678Z,3.00
2022-09-06T08:49:01.253Z,2.78
2022-09-06T08:53:18.967Z,2.80
2022-09-06T08:57:40.084Z,2.80
2022-09-06T09:02:21.727Z,2.70
2022-09-06T09:06:34.000Z,2.50
2022-09-06T09:10:52.211Z,2.40
2022-09-06T09:15:10.497Z,2.47
2022-09-06T09:19:22.121Z,2.30
2022-09-06T09:23:33.622Z,2.60
2022-09-06T09:27:45.517Z,2.55
2022-09-06T09:31:57.475Z,2.25
2022-09-06T09:36:13.161Z,2.33
2022-09-06T09:40:24.658Z,2.25
2022-09-06T09:44:43.266Z,2.00
2022-09-06T09:49:08.337Z,2.50
2022-09-06T09:53:22.227Z,1.80
2022-09-06T09:57:48.522Z,2.25
2022-09-06T10:02:02.162Z,1.98
2022-09-06T10:10:47.915Z,2.33
2022-09-06T10:15:02.419Z,1.92
2022-09-06T10:19:30.111Z,2.08
2022-09-06T10:28:36.961Z,1.88
2022-09-06T10:33:23.610Z,1.83
2022-09-06T10:38:03.351Z,2.22
2022-09-06T10:42:54.435Z,2.00
2022-09-06T10:47:11.379Z,2.25
2022-09-06T10:51:34.850Z,1.95
2022-09-06T10:56:01.247Z,2.42
2022-09-06T11:00:14.538Z,1.42
2022-09-06T11:09:11.107Z,1.95
2022-09-06T11:13:27.061Z,2.03
2022-09-06T11:18:08.057Z,2.22
2022-09-06T11:22:48.049Z,2.15
2022-09-06T11:27:16.181Z,2.50
2022-09-06T11:36:18.578Z,1.70
2022-09-06T11:40:37.692Z,2.20
2022-09-06T11:44:58.133Z,1.90
2022-09-06T11:49:29.321Z,2.08
2022-09-06T11:53:49.798Z,2.00
2022-09-06T11:58:04.702Z,1.90
2022-09-06T12:02:42.284Z,1.90
2022-09-06T12:07:12.053Z,2.33
2022-09-06T12:11:43.469Z,1.83
2022-09-06T12:15:56.482Z,2.03
2022-09-06T12:20:08.313Z,1.67
2022-09-06T12:24:35.265Z,2.10
2022-09-06T12:28:49.901Z,1.92
2022-09-06T12:33:07.608Z,2.30
2022-09-06T12:37:32.170Z,1.75
2022-09-06T12:41:49.789Z,1.98
2022-09-06T12:46:05.124Z,2.00
2022-09-06T12:50:24.884Z,2.13
2022-09-06T12:54:43.758Z,1.92
2022-09-06T12:59:20.070Z,2.15
2022-09-06T13:03:37.261Z,1.77
2022-09-06T13:07:53.260Z,2.22
2022-09-06T13:12:08.494Z,2.30
2022-09-06T13:16:26.603Z,1.95
2022-09-06T13:20:38.196Z,1.83
2022-09-06T13:25:23.934Z,2.00
2022-09-06T13:29:36.629Z,2.13
2022-09-06T13:33:58.690Z,1.63
2022-09-06T13:38:38.071Z,1.50
2022-09-06T13:43:00.359Z,1.65
2022-09-06T13:47:11.871Z,1.60
2022-09-06T13:51:24.228Z,1.48
2022-09-06T13:55:35.800Z,1.58
2022-09-06T13:59:47.341Z,1.52
2022-09-06T14:03:59.969Z,1.65
2022-09-06T14:08:11.520Z,1.67
2022-09-06T14:12:23.171Z,1.95
2022-09-06T14:16:34.819Z,1.80
2022-09-06T14:20:52.950Z,1.50
2022-09-06T14:25:06.936Z,1.60
2022-09-06T14:29:19.016Z,1.70
2022-09-06T14:33:31.101Z,1.48
2022-09-06T14:37:43.969Z,1.50
2022-09-06T14:41:55.580Z,1.67
2022-09-06T14:46:15.081Z,1.80
2022-09-06T14:50:26.887Z,1.50
2022-09-06T14:54:38.491Z,1.50
2022-09-06T14:58:50.343Z,1.30
2022-09-06T15:03:01.940Z,1.88
2022-09-06T15:07:13.605Z,1.63
2022-09-06T15:11:30.228Z,1.65
2022-09-06T15:15:41.885Z,1.40
2022-09-06T15:19:54.305Z,1.85
2022-09-06T15:24:11.146Z,1.80
2022-09-06T15:28:23.439Z,1.60
2022-09-06T15:32:35.007Z,1.70
2022-09-06T15:36:47.060Z,1.60
2022-09-06T15:41:08.244Z,1.40
2022-09-06T15:45:19.976Z,1.80
2022-09-06T15:49:32.575Z,2.10
2022-09-06T15:53:44.672Z,1.60
2022-09-06T15:57:56.234Z,1.63
2022-09-06T16:02:08.852Z,1.70
2022-09-06T16:10:38.792Z,1.88
2022-09-06T16:14:50.323Z,1.52
2022-09-06T16:19:02.418Z,1.50
2022-09-06T16:23:14.027Z,1.75
2022-09-06T16:27:25.614Z,1.73
2022-09-06T16:31:40.292Z,1.33
2022-09-06T16:35:52.471Z,1.73
2022-09-06T16:40:04.655Z,1.70
2022-09-06T16:44:18.258Z,1.80
2022-09-06T16:48:30.811Z,1.80
2022-09-06T16:52:42.485Z,1.63
2022-09-06T16:56:54.144Z,1.80
2022-09-06T17:01:06.558Z,1.83
2022-09-06T17:05:18.373Z,1.70
2022-09-06T17:09:30.030Z,1.63
2022-09-06T17:13:42.682Z,1.35
2022-09-06T17:17:54.367Z,1.50
2022-09-06T17:22:06.158Z,1.25
2022-09-06T17:26:22.203Z,1.42
2022-09-06T17:30:39.653Z,1.35
2022-09-06T17:34:51.306Z,1.40
2022-09-06T17:39:07.620Z,1.20
2022-09-06T17:43:19.245Z,1.30
2022-09-06T17:47:31.854Z,1.63
2022-09-06T17:51:43.833Z,1.85
2022-09-06T17:55:55.517Z,1.58
2022-09-06T18:00:07.637Z,1.98
2022-09-06T18:04:19.547Z,1.25
2022-09-06T18:08:31.216Z,1.70
2022-09-06T18:12:43.076Z,1.73
2022-09-06T18:16:54.757Z,1.40
2022-09-06T18:21:06.985Z,1.50
2022-09-06T18:25:18.593Z,1.40
2022-09-06T18:29:30.216Z,1.60
2022-09-06T18:33:42.585Z,1.35
2022-09-06T18:37:54.155Z,1.35
2022-09-06T18:42:11.006Z,1.70
2022-09-06T18:46:22.587Z,1.58
2022-09-06T18:50:38.085Z,1.30
2022-09-06T18:54:49.705Z,1.73
2022-09-06T18:59:02.051Z,1.60
2022-09-06T19:03:14.062Z,2.00
2022-09-06T19:07:28.548Z,1.90
2022-09-06T19:11:43.299Z,2.53
2022-09-06T19:15:54.879Z,2.78
2022-09-06T19:20:08.949Z,3.50
2022-09-06T19:24:22.756Z,3.20
2022-09-06T19:28:35.303Z,4.10
2022-09-06T19:32:47.501Z,2.60
2022-09-06T19:36:59.174Z,2.60
2022-09-06T19:41:13.070Z,2.22
2022-09-06T19:45:24.666Z,1.90
2022-09-06T19:49:36.341Z,2.45
2022-09-06T19:53:52.904Z,2.10
2022-09-06T19:58:07.952Z,2.40
2022-09-06T20:02:19.919Z,2.53
2022-09-06T20:06:31.778Z,2.78
2022-09-06T20:10:52.674Z,2.28
2022-09-06T20:15:04.531Z,2.33
2022-09-06T20:19:16.378Z,2.58
2022-09-06T20:23:29.161Z,2.00
2022-09-06T20:27:44.415Z,2.13
2022-09-06T20:31:56.331Z,1.92
2022-09-06T20:36:09.437Z,2.40
2022-09-06T20:40:21.056Z,2.35
2022-09-06T20:44:32.724Z,2.45
2022-09-06T20:48:45.954Z,2.15
2022-09-06T20:52:57.536Z,2.70
2022-09-06T20:57:09.186Z,2.38
2022-09-06T21:01:23.357Z,2.50
2022-09-06T21:05:35.066Z,2.53
2022-09-06T21:09:46.674Z,2.70
2022-09-06T21:13:58.414Z,3.03
2022-09-06T21:18:10.166Z,3.58
2022-09-06T21:22:21.756Z,3.40
2022-09-06T21:26:33.676Z,3.60
2022-09-06T21:30:45.430Z,4.13
2022-09-06T21:34:57.011Z,4.18
2022-09-06T21:39:10.728Z,4.68
2022-09-06T21:43:22.354Z,4.50
2022-09-06T21:47:33.983Z,4.30
2022-09-06T21:51:45.641Z,4.05
2022-09-06T21:56:01.123Z,3.90
2022-09-06T22:00:14.480Z,2.92
2022-09-06T22:04:26.234Z,3.13
2022-09-06T22:08:38.255Z,3.10
2022-09-06T22:12:50.934Z,3.05
2022-09-06T22:17:02.610Z,3.33
2022-09-06T22:21:18.729Z,2.92
2022-09-06T22:25:31.209Z,2.90
2022-09-06T22:29:42.857Z,3.30
2022-09-06T22:33:55.012Z,2.97
2022-09-06T22:38:07.651Z,3.22
2022-09-06T22:42:19.246Z,3.00
2022-09-06T22:46:31.415Z,3.10
2022-09-06T22:50:43.617Z,3.53
2022-09-06T22:54:55.883Z,3.08
2022-09-06T22:59:07.848Z,3.50
2022-09-06T23:03:19.649Z,4.80
2022-09-06T23:07:31.299Z,5.18
2022-09-06T23:11:43.019Z,4.70
2022-09-06T23:15:54.752Z,4.22
2022-09-06T23:20:06.999Z,4.60
2022-09-06T23:24:18.602Z,4.07
2022-09-06T23:28:30.599Z,4.68
2022-09-06T23:32:42.284Z,4.43
2022-09-06T23:36:54.158Z,4.13
2022-09-06T23:41:06.795Z,4.03
2022-09-06T23:45:18.362Z,2.88
2022-09-06T23:49:30.060Z,2.58
2022-09-06T23:53:41.679Z,1.85
2022-09-06T23:57:53.425Z,1.67
